createdAt,value
2023-01-20T00:00:57.737Z,2.00
2023-01-20T00:01:57.729Z,0.00
2023-01-20T00:02:57.966Z,0.00
2023-01-20T00:03:57.768Z,0.00
2023-01-20T00:04:57.697Z,0.00
2023-01-20T00:05:57.674Z,0.00
2023-01-20T00:06:57.808Z,2.00
2023-01-20T00:07:57.909Z,0.00
2023-01-20T00:08:57.622Z,0.00
2023-01-20T00:09:57.615Z,0.00
2023-01-20T00:10:57.599Z,0.00
2023-01-20T00:11:57.839Z,0.00
2023-01-20T00:12:57.592Z,0.00
2023-01-20T00:13:57.600Z,0.00
2023-01-20T00:14:57.538Z,0.00
2023-01-20T00:16:07.691Z,0.00
2023-01-20T00:17:04.518Z,0.00
2023-01-20T00:17:58.961Z,0.00
2023-01-20T00:18:57.483Z,0.00
2023-01-20T00:19:57.487Z,0.00
2023-01-20T00:20:57.463Z,0.00
2023-01-20T00:21:57.543Z,0.00
2023-01-20T00:22:57.436Z,0.00
2023-01-20T00:23:57.436Z,0.00
2023-01-20T00:24:57.412Z,0.00
2023-01-20T00:25:57.402Z,0.00
2023-01-20T00:26:57.400Z,0.00
2023-01-20T00:27:57.374Z,0.00
2023-01-20T00:28:57.391Z,0.00
2023-01-20T00:29:57.353Z,0.00
2023-01-20T00:30:57.426Z,0.00
2023-01-20T00:31:57.349Z,0.00
2023-01-20T00:32:57.320Z,0.00
2023-01-20T00:33:57.307Z,0.00
2023-01-20T00:34:57.292Z,0.00
2023-01-20T00:35:57.280Z,0.00
2023-01-20T00:36:57.269Z,0.00
2023-01-20T00:37:57.262Z,0.00
2023-01-20T00:38:57.246Z,0.00
2023-01-20T00:39:57.231Z,0.00
2023-01-20T00:40:57.230Z,0.00
2023-01-20T00:41:57.234Z,0.00
2023-01-20T00:42:57.201Z,0.00
2023-01-20T00:43:57.187Z,0.00
2023-01-20T00:44:57.327Z,0.00
2023-01-20T00:45:57.165Z,0.00
2023-01-20T00:46:57.184Z,0.00
2023-01-20T00:47:57.132Z,0.00
2023-01-20T00:48:57.340Z,0.00
2023-01-20T00:49:57.096Z,0.00
2023-01-20T00:50:57.098Z,0.00
2023-01-20T00:51:57.108Z,0.00
2023-01-20T00:52:57.074Z,0.00
2023-01-20T00:53:57.054Z,0.00
2023-01-20T00:54:57.034Z,0.00
2023-01-20T00:55:57.047Z,0.00
2023-01-20T00:56:57.023Z,0.00
2023-01-20T00:57:57.004Z,0.00
2023-01-20T00:58:56.991Z,0.00
2023-01-20T00:59:56.980Z,0.00
2023-01-20T01:00:57.030Z,0.00
2023-01-20T01:01:57.025Z,0.00
2023-01-20T01:02:56.936Z,0.00
2023-01-20T01:03:56.931Z,0.00
2023-01-20T01:04:56.920Z,0.00
2023-01-20T01:05:56.908Z,0.00
2023-01-20T01:06:56.908Z,0.00
2023-01-20T01:07:58.399Z,0.00
2023-01-20T01:08:56.885Z,0.00
2023-01-20T01:09:56.876Z,0.00
2023-01-20T01:10:56.845Z,0.00
2023-01-20T01:11:56.846Z,0.00
2023-01-20T01:12:56.835Z,0.00
2023-01-20T01:13:56.812Z,0.00
2023-01-20T01:14:56.808Z,0.00
2023-01-20T01:15:56.804Z,0.00
2023-01-20T01:16:57.514Z,0.00
2023-01-20T01:17:56.802Z,0.00
2023-01-20T01:18:56.746Z,0.00
2023-01-20T01:19:56.745Z,0.00
2023-01-20T01:20:56.773Z,0.00
2023-01-20T01:21:56.744Z,0.00
2023-01-20T01:22:56.716Z,0.00
2023-01-20T01:23:56.708Z,0.00
2023-01-20T01:24:56.682Z,0.00
2023-01-20T01:25:56.663Z,0.00
2023-01-20T01:26:56.662Z,0.00
2023-01-20T01:27:56.662Z,0.00
2023-01-20T01:28:56.618Z,0.00
2023-01-20T01:29:56.608Z,0.00
2023-01-20T01:30:56.670Z,0.00
2023-01-20T01:31:56.604Z,0.00
2023-01-20T01:32:58.057Z,0.00
2023-01-20T01:33:56.585Z,0.00
2023-01-20T01:34:56.549Z,0.00
2023-01-20T01:35:56.549Z,0.00
2023-01-20T01:36:56.534Z,0.00
2023-01-20T01:37:56.517Z,0.00
2023-01-20T01:38:58.248Z,0.00
2023-01-20T01:39:56.934Z,0.00
2023-01-20T01:40:56.485Z,0.00
2023-01-20T01:41:56.619Z,0.00
2023-01-20T01:42:56.454Z,0.00
2023-01-20T01:43:56.450Z,0.00
2023-01-20T01:44:56.434Z,0.00
2023-01-20T01:45:56.494Z,0.00
2023-01-20T01:46:56.404Z,0.00
2023-01-20T01:47:56.397Z,0.00
2023-01-20T01:48:56.362Z,0.00
2023-01-20T01:49:56.375Z,0.00
2023-01-20T01:50:56.343Z,0.00
2023-01-20T01:51:56.351Z,0.00
2023-01-20T01:52:56.322Z,0.00
2023-01-20T01:53:56.319Z,0.00
2023-01-20T01:54:56.303Z,0.00
2023-01-20T01:55:56.312Z,0.00
2023-01-20T01:56:56.287Z,0.00
2023-01-20T01:57:56.317Z,0.00
2023-01-20T01:58:57.794Z,0.00
2023-01-20T01:59:56.244Z,0.00
2023-01-20T02:00:56.283Z,0.00
2023-01-20T02:01:57.811Z,0.00
2023-01-20T02:02:56.196Z,0.00
2023-01-20T02:03:56.187Z,0.00
2023-01-20T02:04:56.173Z,0.00
2023-01-20T02:05:56.169Z,0.00
2023-01-20T02:06:56.427Z,0.00
2023-01-20T02:07:56.140Z,0.00
2023-01-20T02:08:56.132Z,0.00
2023-01-20T02:09:56.361Z,0.00
2023-01-20T02:10:56.095Z,0.00
2023-01-20T02:11:56.117Z,0.00
2023-01-20T02:12:56.087Z,0.00
2023-01-20T02:13:56.073Z,0.00
2023-01-20T02:14:56.068Z,0.00
2023-01-20T02:15:56.072Z,0.00
2023-01-20T02:16:57.508Z,0.00
2023-01-20T02:17:56.347Z,0.00
2023-01-20T02:18:57.981Z,0.00
2023-01-20T02:19:56.016Z,0.00
2023-01-20T02:20:56.044Z,0.00
2023-01-20T02:21:56.008Z,0.00
2023-01-20T02:22:55.968Z,0.00
2023-01-20T02:23:56.909Z,0.00
2023-01-20T02:24:55.961Z,0.00
2023-01-20T02:25:55.928Z,0.00
2023-01-20T02:26:55.920Z,0.00
2023-01-20T02:27:55.896Z,0.00
2023-01-20T02:28:55.876Z,0.00
2023-01-20T02:29:55.872Z,0.00
2023-01-20T02:30:55.926Z,0.00
2023-01-20T02:31:55.898Z,0.00
2023-01-20T02:32:55.838Z,0.00
2023-01-20T02:33:55.825Z,0.00
2023-01-20T02:34:55.829Z,0.00
2023-01-20T02:35:56.596Z,0.00
2023-01-20T02:36:55.802Z,0.00
2023-01-20T02:37:55.778Z,0.00
2023-01-20T02:38:55.749Z,0.00
2023-01-20T02:39:55.825Z,0.00
2023-01-20T02:40:56.007Z,0.00
2023-01-20T02:41:55.726Z,0.00
2023-01-20T02:42:55.698Z,0.00
2023-01-20T02:43:55.698Z,0.00
2023-01-20T02:44:55.697Z,0.00
2023-01-20T02:45:55.706Z,0.00
2023-01-20T02:46:55.668Z,0.00
2023-01-20T02:47:55.670Z,0.00
2023-01-20T02:48:56.590Z,0.00
2023-01-20T02:49:55.626Z,0.00
2023-01-20T02:50:55.615Z,0.00
2023-01-20T02:51:55.610Z,0.00
2023-01-20T02:52:55.591Z,0.00
2023-01-20T02:53:55.583Z,0.00
2023-01-20T02:54:55.557Z,0.00
2023-01-20T02:55:55.565Z,0.00
2023-01-20T02:56:56.332Z,0.00
2023-01-20T02:57:55.523Z,0.00
2023-01-20T02:58:55.509Z,0.00
2023-01-20T02:59:55.502Z,0.00
2023-01-20T03:00:55.482Z,0.00
2023-01-20T03:01:55.624Z,0.00
2023-01-20T03:02:55.450Z,0.00
2023-01-20T03:03:55.528Z,0.00
2023-01-20T03:04:55.433Z,0.00
2023-01-20T03:05:55.478Z,0.00
2023-01-20T03:06:55.423Z,0.00
2023-01-20T03:07:55.401Z,0.00
2023-01-20T03:08:55.382Z,0.00
2023-01-20T03:09:55.394Z,0.00
2023-01-20T03:10:56.881Z,0.00
2023-01-20T03:11:56.886Z,0.00
2023-01-20T03:12:55.343Z,0.00
2023-01-20T03:13:55.325Z,0.00
2023-01-20T03:14:55.311Z,0.00
2023-01-20T03:15:55.311Z,0.00
2023-01-20T03:16:55.390Z,0.00
2023-01-20T03:17:55.279Z,0.00
2023-01-20T03:18:55.263Z,0.00
2023-01-20T03:19:55.261Z,0.00
2023-01-20T03:20:55.231Z,0.00
2023-01-20T03:21:55.243Z,0.00
2023-01-20T03:22:55.215Z,0.00
2023-01-20T03:23:55.205Z,0.00
2023-01-20T03:24:55.191Z,0.00
2023-01-20T03:25:55.175Z,0.00
2023-01-20T03:26:55.174Z,0.00
2023-01-20T03:27:55.169Z,0.00
2023-01-20T03:28:55.947Z,0.00
2023-01-20T03:29:55.136Z,0.00
2023-01-20T03:30:55.182Z,0.00
2023-01-20T03:31:55.116Z,0.00
2023-01-20T03:32:55.095Z,0.00
2023-01-20T03:33:55.082Z,0.00
2023-01-20T03:34:55.075Z,0.00
2023-01-20T03:35:55.061Z,0.00
2023-01-20T03:36:55.062Z,0.00
2023-01-20T03:37:55.039Z,0.00
2023-01-20T03:38:55.031Z,0.00
2023-01-20T03:39:55.024Z,0.00
2023-01-20T03:40:54.986Z,0.00
2023-01-20T03:41:54.996Z,0.00
2023-01-20T03:42:54.956Z,0.00
2023-01-20T03:43:54.969Z,0.00
2023-01-20T03:44:56.970Z,0.00
2023-01-20T03:45:55.001Z,0.00
2023-01-20T03:46:54.942Z,0.00
2023-01-20T03:47:54.915Z,0.00
2023-01-20T03:48:54.890Z,0.00
2023-01-20T03:49:56.432Z,0.00
2023-01-20T03:50:54.876Z,0.00
2023-01-20T03:51:54.873Z,0.00
2023-01-20T03:52:54.837Z,0.00
2023-01-20T03:53:54.842Z,0.00
2023-01-20T03:54:54.839Z,0.00
2023-01-20T03:55:54.807Z,0.00
2023-01-20T03:56:54.800Z,0.00
2023-01-20T03:57:54.798Z,0.00
2023-01-20T03:58:54.768Z,0.00
2023-01-20T03:59:54.759Z,0.00
2023-01-20T04:00:54.771Z,0.00
2023-01-20T04:01:55.110Z,0.00
2023-01-20T04:02:54.723Z,0.00
2023-01-20T04:03:54.718Z,0.00
2023-01-20T04:04:54.700Z,0.00
2023-01-20T04:05:54.682Z,0.00
2023-01-20T04:06:54.669Z,0.00
2023-01-20T04:07:54.658Z,0.00
2023-01-20T04:08:56.779Z,0.00
2023-01-20T04:09:54.636Z,0.00
2023-01-20T04:10:54.610Z,0.00
2023-01-20T04:11:54.623Z,0.00
2023-01-20T04:12:54.580Z,0.00
2023-01-20T04:13:54.589Z,0.00
2023-01-20T04:14:54.571Z,0.00
2023-01-20T04:15:55.587Z,0.00
2023-01-20T04:16:54.557Z,0.00
2023-01-20T04:17:54.533Z,0.00
2023-01-20T04:18:54.510Z,0.00
2023-01-20T04:19:54.502Z,0.00
2023-01-20T04:20:54.490Z,0.00
2023-01-20T04:21:54.493Z,0.00
2023-01-20T04:22:54.464Z,0.00
2023-01-20T04:23:54.463Z,0.00
2023-01-20T04:24:54.443Z,0.00
2023-01-20T04:25:54.448Z,0.00
2023-01-20T04:26:54.422Z,0.00
2023-01-20T04:27:54.412Z,0.00
2023-01-20T04:28:54.396Z,0.00
2023-01-20T04:29:54.378Z,0.00
2023-01-20T04:30:54.456Z,0.00
2023-01-20T04:31:54.387Z,0.00
2023-01-20T04:32:54.348Z,0.00
2023-01-20T04:33:54.333Z,0.00
2023-01-20T04:34:54.312Z,0.00
2023-01-20T04:35:55.824Z,0.00
2023-01-20T04:36:54.305Z,0.00
2023-01-20T04:37:54.291Z,0.00
2023-01-20T04:38:54.269Z,0.00
2023-01-20T04:39:54.524Z,0.00
2023-01-20T04:40:55.274Z,0.00
2023-01-20T04:41:54.243Z,0.00
2023-01-20T04:42:54.220Z,0.00
2023-01-20T04:43:54.221Z,0.00
2023-01-20T04:44:54.195Z,0.00
2023-01-20T04:45:54.272Z,0.00
2023-01-20T04:46:54.181Z,0.00
2023-01-20T04:47:54.158Z,0.00
2023-01-20T04:48:54.156Z,0.00
2023-01-20T04:49:54.136Z,0.00
2023-01-20T04:50:54.114Z,0.00
2023-01-20T04:51:54.120Z,0.00
2023-01-20T04:52:54.102Z,0.00
2023-01-20T04:53:54.088Z,0.00
2023-01-20T04:54:54.079Z,0.00
2023-01-20T04:55:54.071Z,0.00
2023-01-20T04:56:55.056Z,0.00
2023-01-20T04:57:54.036Z,0.00
2023-01-20T04:58:56.068Z,0.00
2023-01-20T04:59:55.477Z,0.00
2023-01-20T05:00:54.007Z,0.00
2023-01-20T05:01:54.099Z,0.00
2023-01-20T05:02:54.003Z,0.00
2023-01-20T05:03:53.964Z,0.00
2023-01-20T05:04:54.457Z,0.00
2023-01-20T05:05:53.937Z,0.00
2023-01-20T05:06:53.937Z,0.00
2023-01-20T05:07:53.924Z,0.00
2023-01-20T05:08:53.907Z,0.00
2023-01-20T05:09:53.989Z,0.00
2023-01-20T05:10:53.890Z,0.00
2023-01-20T05:11:53.872Z,0.00
2023-01-20T05:12:53.848Z,0.00
2023-01-20T05:13:54.249Z,0.00
2023-01-20T05:14:53.830Z,0.00
2023-01-20T05:15:53.823Z,0.00
2023-01-20T05:16:53.824Z,0.00
2023-01-20T05:17:54.032Z,0.00
2023-01-20T05:18:53.783Z,0.00
2023-01-20T05:19:53.760Z,0.00
2023-01-20T05:20:53.753Z,0.00
2023-01-20T05:21:53.740Z,0.00
2023-01-20T05:22:53.725Z,0.00
2023-01-20T05:23:55.237Z,0.00
2023-01-20T05:24:53.711Z,0.00
2023-01-20T05:25:53.685Z,0.00
2023-01-20T05:26:53.702Z,0.00
2023-01-20T05:27:53.676Z,0.00
2023-01-20T05:28:53.693Z,0.00
2023-01-20T05:29:53.642Z,0.00
2023-01-20T05:30:53.730Z,0.00
2023-01-20T05:31:53.623Z,0.00
2023-01-20T05:32:53.605Z,0.00
2023-01-20T05:33:53.605Z,0.00
2023-01-20T05:34:53.573Z,0.00
2023-01-20T05:35:55.908Z,0.00
2023-01-20T05:36:53.562Z,0.00
2023-01-20T05:37:53.554Z,0.00
2023-01-20T05:38:53.524Z,0.00
2023-01-20T05:39:53.506Z,0.00
2023-01-20T05:40:54.998Z,0.00
2023-01-20T05:41:53.504Z,0.00
2023-01-20T05:42:53.478Z,0.00
2023-01-20T05:43:53.454Z,0.00
2023-01-20T05:44:53.447Z,0.00
2023-01-20T05:45:53.433Z,0.00
2023-01-20T05:46:53.436Z,0.00
2023-01-20T05:47:53.413Z,0.00
2023-01-20T05:48:53.409Z,0.00
2023-01-20T05:49:53.382Z,0.00
2023-01-20T05:50:53.385Z,0.00
2023-01-20T05:51:53.374Z,0.00
2023-01-20T05:52:53.345Z,0.00
2023-01-20T05:53:53.335Z,0.00
2023-01-20T05:54:53.330Z,0.00
2023-01-20T05:55:53.306Z,0.00
2023-01-20T05:56:53.316Z,0.00
2023-01-20T05:57:53.294Z,0.00
2023-01-20T05:58:53.277Z,0.00
2023-01-20T05:59:53.268Z,0.00
2023-01-20T06:00:53.251Z,0.00
2023-01-20T06:01:53.247Z,0.00
2023-01-20T06:02:53.544Z,0.00
2023-01-20T06:03:53.257Z,0.00
2023-01-20T06:04:53.204Z,0.00
2023-01-20T06:05:53.180Z,0.00
2023-01-20T06:06:53.178Z,0.00
2023-01-20T06:07:53.157Z,0.00
2023-01-20T06:08:53.157Z,0.00
2023-01-20T06:09:53.147Z,0.00
2023-01-20T06:10:53.127Z,0.00
2023-01-20T06:11:53.141Z,0.00
2023-01-20T06:12:53.100Z,0.00
2023-01-20T06:13:53.089Z,0.00
2023-01-20T06:14:53.088Z,0.00
2023-01-20T06:15:54.589Z,0.00
2023-01-20T06:16:53.367Z,0.00
2023-01-20T06:17:53.041Z,0.00
2023-01-20T06:18:55.028Z,0.00
2023-01-20T06:19:53.016Z,0.00
2023-01-20T06:20:53.339Z,2.00
2023-01-20T06:21:53.030Z,2.00
2023-01-20T06:22:53.010Z,2.00
2023-01-20T06:23:52.983Z,2.00
2023-01-20T06:24:52.964Z,2.00
2023-01-20T06:25:52.982Z,0.00
2023-01-20T06:26:53.500Z,0.00
2023-01-20T06:27:52.910Z,0.00
2023-01-20T06:28:52.912Z,0.00
2023-01-20T06:29:52.905Z,0.00
2023-01-20T06:30:52.915Z,4.00
2023-01-20T06:31:52.883Z,0.00
2023-01-20T06:32:52.870Z,2.00
2023-01-20T06:33:52.859Z,6.00
2023-01-20T06:34:52.833Z,1.00
2023-01-20T06:35:52.844Z,5.00
2023-01-20T06:36:54.580Z,7.00
2023-01-20T06:37:52.791Z,13.00
2023-01-20T06:38:53.597Z,13.00
2023-01-20T06:39:54.245Z,18.00
2023-01-20T06:40:52.764Z,18.00
2023-01-20T06:41:52.766Z,25.00
2023-01-20T06:42:52.735Z,27.00
2023-01-20T06:43:52.722Z,28.00
2023-01-20T06:44:52.713Z,34.00
2023-01-20T06:45:52.705Z,35.00
2023-01-20T06:46:54.243Z,36.00
2023-01-20T06:47:52.701Z,53.00
2023-01-20T06:48:52.681Z,69.00
2023-01-20T06:49:52.649Z,68.00
2023-01-20T06:50:52.652Z,83.00
2023-01-20T06:51:52.668Z,101.00
2023-01-20T06:52:52.641Z,115.00
2023-01-20T06:53:52.876Z,122.00
2023-01-20T06:54:52.620Z,126.00
2023-01-20T06:55:53.075Z,152.00
2023-01-20T06:56:52.628Z,173.00
2023-01-20T06:57:52.555Z,191.00
2023-01-20T06:58:52.552Z,209.00
2023-01-20T06:59:52.523Z,243.00
2023-01-20T07:00:54.148Z,270.00
2023-01-20T07:01:52.597Z,286.00
2023-01-20T07:02:52.483Z,320.00
2023-01-20T07:03:52.478Z,349.00
2023-01-20T07:04:52.470Z,370.00
2023-01-20T07:05:52.448Z,404.00
2023-01-20T07:06:54.447Z,430.00
2023-01-20T07:07:52.428Z,449.00
2023-01-20T07:08:52.429Z,471.00
2023-01-20T07:09:52.397Z,503.00
2023-01-20T07:10:52.390Z,518.00
2023-01-20T07:11:52.396Z,542.00
2023-01-20T07:12:52.369Z,577.00
2023-01-20T07:13:52.357Z,589.00
2023-01-20T07:14:52.348Z,626.00
2023-01-20T07:15:52.317Z,648.00
2023-01-20T07:16:52.363Z,679.00
2023-01-20T07:17:52.298Z,701.00
2023-01-20T07:18:53.328Z,736.00
2023-01-20T07:19:52.302Z,771.00
2023-01-20T07:20:52.270Z,799.00
2023-01-20T07:21:52.266Z,833.00
2023-01-20T07:22:52.249Z,859.00
2023-01-20T07:23:52.230Z,878.00
2023-01-20T07:24:52.220Z,912.00
2023-01-20T07:25:52.199Z,944.00
2023-01-20T07:26:52.992Z,976.00
2023-01-20T07:27:52.173Z,1019.00
2023-01-20T07:28:52.223Z,1057.00
2023-01-20T07:29:52.170Z,1105.00
2023-01-20T07:30:52.256Z,1159.00
2023-01-20T07:31:52.176Z,1210.00
2023-01-20T07:32:52.137Z,1275.00
2023-01-20T07:33:52.118Z,1340.00
2023-01-20T07:34:52.098Z,1411.00
2023-01-20T07:35:52.080Z,1481.00
2023-01-20T07:36:52.089Z,1551.00
2023-01-20T07:37:52.071Z,1608.00
2023-01-20T07:38:52.058Z,1693.00
2023-01-20T07:39:52.052Z,1754.00
2023-01-20T07:40:52.031Z,1817.00
2023-01-20T07:41:52.013Z,1887.00
2023-01-20T07:42:52.019Z,1951.00
2023-01-20T07:43:52.015Z,2016.00
2023-01-20T07:44:51.978Z,2070.00
2023-01-20T07:45:51.991Z,2132.00
2023-01-20T07:46:51.959Z,2177.00
2023-01-20T07:47:51.939Z,2216.00
2023-01-20T07:48:51.930Z,2253.00
2023-01-20T07:49:51.922Z,2310.00
2023-01-20T07:50:51.931Z,2344.00
2023-01-20T07:51:51.896Z,2401.00
2023-01-20T07:52:51.880Z,2444.00
2023-01-20T07:53:51.869Z,2503.00
2023-01-20T07:54:51.884Z,2548.00
2023-01-20T07:55:51.833Z,2610.00
2023-01-20T07:56:51.837Z,2660.00
2023-01-20T07:57:53.295Z,2725.00
2023-01-20T07:58:51.830Z,2794.00
2023-01-20T07:59:51.805Z,2844.00
2023-01-20T08:00:51.841Z,2900.00
2023-01-20T08:01:51.821Z,2968.00
2023-01-20T08:02:51.756Z,3041.00
2023-01-20T08:03:51.745Z,3117.00
2023-01-20T08:04:51.830Z,3187.00
2023-01-20T08:05:51.721Z,3260.00
2023-01-20T08:06:51.718Z,3346.00
2023-01-20T08:07:51.707Z,3395.00
2023-01-20T08:08:51.694Z,3468.00
2023-01-20T08:09:53.164Z,3532.00
2023-01-20T08:10:51.709Z,3607.00
2023-01-20T08:11:51.656Z,3678.00
2023-01-20T08:12:51.631Z,3759.00
2023-01-20T08:13:51.621Z,3845.00
2023-01-20T08:14:51.607Z,3907.00
2023-01-20T08:15:51.587Z,3994.00
2023-01-20T08:16:51.685Z,4075.00
2023-01-20T08:17:51.579Z,4139.00
2023-01-20T08:18:51.556Z,4227.00
2023-01-20T08:19:51.592Z,4323.00
2023-01-20T08:20:51.555Z,4396.00
2023-01-20T08:21:51.537Z,4500.00
2023-01-20T08:22:51.543Z,4604.00
2023-01-20T08:23:51.506Z,4715.00
2023-01-20T08:24:51.490Z,4838.00
2023-01-20T08:25:51.474Z,4974.00
2023-01-20T08:26:51.489Z,5135.00
2023-01-20T08:27:51.458Z,5265.00
2023-01-20T08:28:51.449Z,5407.00
2023-01-20T08:29:51.434Z,5521.00
2023-01-20T08:30:51.482Z,5639.00
2023-01-20T08:31:51.537Z,5769.00
2023-01-20T08:32:51.395Z,5916.00
2023-01-20T08:33:52.899Z,6091.00
2023-01-20T08:34:51.363Z,6226.00
2023-01-20T08:35:51.356Z,6359.00
2023-01-20T08:36:51.335Z,6449.00
2023-01-20T08:37:51.320Z,6552.00
2023-01-20T08:38:51.320Z,6642.00
2023-01-20T08:39:51.331Z,6719.00
2023-01-20T08:40:51.318Z,6804.00
2023-01-20T08:41:51.313Z,6866.00
2023-01-20T08:42:51.297Z,6879.00
2023-01-20T08:43:51.233Z,6854.00
2023-01-20T08:44:51.266Z,6798.00
2023-01-20T08:45:51.263Z,6745.00
2023-01-20T08:46:51.212Z,6700.00
2023-01-20T08:47:51.188Z,6694.00
2023-01-20T08:48:51.192Z,6692.00
2023-01-20T08:49:51.390Z,6697.00
2023-01-20T08:50:51.165Z,6695.00
2023-01-20T08:51:51.152Z,6699.00
2023-01-20T08:52:51.136Z,6733.00
2023-01-20T08:53:51.127Z,6785.00
2023-01-20T08:54:51.116Z,6859.00
2023-01-20T08:55:51.085Z,6971.00
2023-01-20T08:56:51.097Z,7072.00
2023-01-20T08:57:51.067Z,7161.00
2023-01-20T08:58:51.080Z,7232.00
2023-01-20T08:59:51.969Z,7242.00
2023-01-20T09:00:51.036Z,7207.00
2023-01-20T09:01:51.014Z,7154.00
2023-01-20T09:02:51.072Z,7102.00
2023-01-20T09:04:04.331Z,7081.00
2023-01-20T09:04:51.984Z,7071.00
2023-01-20T09:05:50.961Z,7071.00
2023-01-20T09:06:50.966Z,7103.00
2023-01-20T09:07:50.928Z,7121.00
2023-01-20T09:08:50.920Z,7148.00
2023-01-20T09:09:50.908Z,7174.00
2023-01-20T09:10:50.896Z,7199.00
2023-01-20T09:11:51.099Z,7217.00
2023-01-20T09:12:50.876Z,7269.00
2023-01-20T09:13:50.856Z,7308.00
2023-01-20T09:14:50.846Z,7344.00
2023-01-20T09:15:50.840Z,7381.00
2023-01-20T09:16:50.826Z,7392.00
2023-01-20T09:17:50.805Z,7385.00
2023-01-20T09:18:50.797Z,7379.00
2023-01-20T09:19:50.777Z,7397.00
2023-01-20T09:20:52.255Z,7406.00
2023-01-20T09:21:50.765Z,7435.00
2023-01-20T09:22:50.739Z,7494.00
2023-01-20T09:23:51.028Z,7550.00
2023-01-20T09:24:50.708Z,7628.00
2023-01-20T09:25:50.698Z,7689.00
2023-01-20T09:26:50.718Z,7791.00
2023-01-20T09:27:50.689Z,7917.00
2023-01-20T09:28:50.663Z,8055.00
2023-01-20T09:29:50.686Z,8188.00
2023-01-20T09:30:50.762Z,8309.00
2023-01-20T09:31:50.802Z,8404.00
2023-01-20T09:32:50.602Z,8496.00
2023-01-20T09:33:50.595Z,8572.00
2023-01-20T09:34:50.581Z,8604.00
2023-01-20T09:35:50.600Z,8625.00
2023-01-20T09:36:50.579Z,8625.00
2023-01-20T09:37:50.541Z,8604.00
2023-01-20T09:38:50.546Z,8620.00
2023-01-20T09:39:50.553Z,8668.00
2023-01-20T09:40:50.507Z,8768.00
2023-01-20T09:41:50.536Z,8899.00
2023-01-20T09:42:50.480Z,9081.00
2023-01-20T09:43:50.478Z,9275.00
2023-01-20T09:44:50.451Z,9473.00
2023-01-20T09:45:50.452Z,9672.00
2023-01-20T09:46:50.437Z,9833.00
2023-01-20T09:47:50.415Z,9999.00
2023-01-20T09:48:50.400Z,10101.00
2023-01-20T09:49:50.410Z,10177.00
2023-01-20T09:50:50.373Z,10263.00
2023-01-20T09:51:50.373Z,10316.00
2023-01-20T09:52:50.364Z,10371.00
2023-01-20T09:53:51.158Z,10408.00
2023-01-20T09:54:50.328Z,10400.00
2023-01-20T09:55:50.321Z,10354.00
2023-01-20T09:56:50.315Z,10295.00
2023-01-20T09:57:50.295Z,10266.00
2023-01-20T09:58:50.287Z,10263.00
2023-01-20T09:59:50.266Z,10302.00
2023-01-20T10:00:50.244Z,10286.00
2023-01-20T10:01:50.318Z,10339.00
2023-01-20T10:02:50.242Z,10403.00
2023-01-20T10:03:50.212Z,10542.00
2023-01-20T10:04:50.196Z,10761.00
2023-01-20T10:05:50.191Z,11080.00
2023-01-20T10:06:50.467Z,11478.00
2023-01-20T10:07:50.222Z,11927.00
2023-01-20T10:09:04.599Z,12367.00
2023-01-20T10:09:51.143Z,12870.00
2023-01-20T10:10:50.112Z,13372.00
2023-01-20T10:11:50.117Z,13811.00
2023-01-20T10:12:50.089Z,14155.00
2023-01-20T10:13:50.241Z,14362.00
2023-01-20T10:14:50.069Z,14501.00
2023-01-20T10:15:50.124Z,14514.00
2023-01-20T10:16:50.101Z,14472.00
2023-01-20T10:17:50.027Z,14242.00
2023-01-20T10:18:50.036Z,13893.00
2023-01-20T10:19:50.022Z,13543.00
2023-01-20T10:20:49.998Z,13391.00
2023-01-20T10:21:50.031Z,13563.00
2023-01-20T10:22:49.986Z,13774.00
2023-01-20T10:23:49.963Z,13837.00
2023-01-20T10:24:49.938Z,13847.00
2023-01-20T10:25:49.953Z,13801.00
2023-01-20T10:26:49.943Z,13735.00
2023-01-20T10:27:49.900Z,13641.00
2023-01-20T10:28:49.879Z,13524.00
2023-01-20T10:29:49.897Z,13428.00
2023-01-20T10:30:50.113Z,13397.00
2023-01-20T10:31:49.921Z,13340.00
2023-01-20T10:32:49.836Z,13280.00
2023-01-20T10:33:49.836Z,13154.00
2023-01-20T10:34:49.801Z,12971.00
2023-01-20T10:35:49.794Z,12738.00
2023-01-20T10:36:49.801Z,12502.00
2023-01-20T10:37:49.776Z,12344.00
2023-01-20T10:38:49.784Z,12244.00
2023-01-20T10:39:49.740Z,12267.00
2023-01-20T10:40:49.780Z,12162.00
2023-01-20T10:41:49.744Z,11960.00
2023-01-20T10:42:49.704Z,11803.00
2023-01-20T10:43:49.694Z,11689.00
2023-01-20T10:44:49.675Z,11613.00
2023-01-20T10:45:49.669Z,11530.00
2023-01-20T10:46:49.761Z,11502.00
2023-01-20T10:47:49.635Z,11495.00
2023-01-20T10:48:49.609Z,11565.00
2023-01-20T10:49:49.614Z,11634.00
2023-01-20T10:50:49.619Z,11725.00
2023-01-20T10:51:49.594Z,11803.00
2023-01-20T10:52:49.561Z,11899.00
2023-01-20T10:53:49.555Z,11990.00
2023-01-20T10:54:49.547Z,12172.00
2023-01-20T10:55:49.519Z,12358.00
2023-01-20T10:56:49.516Z,12513.00
2023-01-20T10:57:49.504Z,12675.00
2023-01-20T10:58:49.485Z,12692.00
2023-01-20T10:59:49.477Z,12681.00
2023-01-20T11:00:49.453Z,12574.00
2023-01-20T11:01:56.274Z,12478.00
2023-01-20T11:02:50.462Z,12379.00
2023-01-20T11:03:49.440Z,12335.00
2023-01-20T11:04:49.403Z,12364.00
2023-01-20T11:05:49.405Z,12344.00
2023-01-20T11:06:49.649Z,12304.00
2023-01-20T11:07:49.369Z,12157.00
2023-01-20T11:08:49.359Z,11922.00
2023-01-20T11:09:49.368Z,11795.00
2023-01-20T11:10:50.802Z,11623.00
2023-01-20T11:11:49.636Z,11490.00
2023-01-20T11:12:49.289Z,11432.00
2023-01-20T11:13:49.285Z,11476.00
2023-01-20T11:14:49.263Z,11575.00
2023-01-20T11:15:49.302Z,11688.00
2023-01-20T11:16:49.332Z,11824.00
2023-01-20T11:17:49.240Z,11891.00
2023-01-20T11:18:51.229Z,11991.00
2023-01-20T11:19:50.682Z,11998.00
2023-01-20T11:20:49.191Z,11974.00
2023-01-20T11:21:49.188Z,11908.00
2023-01-20T11:22:49.159Z,11839.00
2023-01-20T11:23:49.333Z,11764.00
2023-01-20T11:24:49.123Z,11734.00
2023-01-20T11:25:49.123Z,11740.00
2023-01-20T11:26:49.122Z,11739.00
2023-01-20T11:27:49.367Z,11714.00
2023-01-20T11:28:49.088Z,11729.00
2023-01-20T11:29:49.063Z,11665.00
2023-01-20T11:30:49.068Z,11579.00
2023-01-20T11:31:49.098Z,11524.00
2023-01-20T11:32:49.020Z,11501.00
2023-01-20T11:33:49.028Z,11442.00
2023-01-20T11:34:49.002Z,11409.00
2023-01-20T11:35:48.984Z,11325.00
2023-01-20T11:36:49.001Z,11237.00
2023-01-20T11:37:48.972Z,11123.00
2023-01-20T11:38:48.955Z,10997.00
2023-01-20T11:39:48.935Z,10920.00
2023-01-20T11:40:48.915Z,10867.00
2023-01-20T11:41:48.919Z,10862.00
2023-01-20T11:42:48.893Z,10870.00
2023-01-20T11:43:48.903Z,10905.00
2023-01-20T11:44:48.857Z,10911.00
2023-01-20T11:45:48.871Z,10899.00
2023-01-20T11:46:48.889Z,10870.00
2023-01-20T11:47:48.841Z,10863.00
2023-01-20T11:48:48.830Z,10893.00
2023-01-20T11:49:48.810Z,10953.00
2023-01-20T11:50:50.840Z,10978.00
2023-01-20T11:51:49.628Z,10969.00
2023-01-20T11:52:49.020Z,10932.00
2023-01-20T11:53:48.759Z,10901.00
2023-01-20T11:54:48.738Z,10860.00
2023-01-20T11:55:48.880Z,10859.00
2023-01-20T11:56:48.731Z,10856.00
2023-01-20T11:57:48.709Z,10872.00
2023-01-20T11:58:48.686Z,10886.00
2023-01-20T11:59:49.354Z,10900.00
2023-01-20T12:00:48.672Z,10919.00
2023-01-20T12:01:48.743Z,10947.00
2023-01-20T12:02:48.630Z,10964.00
2023-01-20T12:03:48.706Z,11012.00
2023-01-20T12:04:48.620Z,11044.00
2023-01-20T12:05:48.606Z,11111.00
2023-01-20T12:06:48.586Z,11211.00
2023-01-20T12:07:48.572Z,11290.00
2023-01-20T12:08:48.571Z,11379.00
2023-01-20T12:09:48.563Z,11418.00
2023-01-20T12:10:48.521Z,11475.00
2023-01-20T12:11:48.531Z,11499.00
2023-01-20T12:12:48.499Z,11519.00
2023-01-20T12:13:48.491Z,11532.00
2023-01-20T12:14:48.472Z,11524.00
2023-01-20T12:15:48.467Z,11484.00
2023-01-20T12:16:48.544Z,11443.00
2023-01-20T12:17:48.437Z,11384.00
2023-01-20T12:19:01.352Z,11305.00
2023-01-20T12:19:49.460Z,11203.00
2023-01-20T12:20:54.963Z,11091.00
2023-01-20T12:21:49.391Z,10960.00
2023-01-20T12:22:48.363Z,10827.00
2023-01-20T12:23:48.356Z,10718.00
2023-01-20T12:24:48.338Z,10616.00
2023-01-20T12:25:48.327Z,10543.00
2023-01-20T12:26:48.323Z,10468.00
2023-01-20T12:27:48.313Z,10427.00
2023-01-20T12:28:48.286Z,10377.00
2023-01-20T12:29:48.276Z,10350.00
2023-01-20T12:30:48.278Z,10327.00
2023-01-20T12:31:48.328Z,10341.00
2023-01-20T12:32:48.486Z,10341.00
2023-01-20T12:33:48.226Z,10363.00
2023-01-20T12:34:48.216Z,10383.00
2023-01-20T12:35:48.219Z,10386.00
2023-01-20T12:36:48.196Z,10387.00
2023-01-20T12:37:48.173Z,10388.00
2023-01-20T12:38:48.164Z,10408.00